Time;durP1;ratioP1;P1;durP2;ratioP2;P2;SDS_P1;SDS_P2;PMS_P1;PMS_P2;Temp;Humidity;BMP_temperature;BMP_pressure;BME280_temperature;BME280_humidity;BME280_pressure;Samples;Min_cycle;Max_cycle;Signal;HPM_P1;HPM_P2
2021/04/03 00:00:52;;;;;;;;;;;17.80;43.50;;;;;;463182;257;1067;-44
2021/04/03 00:02:53;;;;;;;;;;;17.80;43.60;;;;;;462975;257;1051;-45
2021/04/03 00:04:54;;;;;;;;;;;17.80;43.50;;;;;;462909;257;1153;-45
2021/04/03 00:06:56;;;;;;;;;;;17.80;43.50;;;;;;462865;257;1090;-45
2021/04/03 00:08:57;;;;;;;;;;;17.80;43.60;;;;;;463048;257;1498;-45
2021/04/03 00:10:58;;;;;;;;;;;17.80;43.50;;;;;;463177;257;1084;-45
2021/04/03 00:13:00;;;;;;;;;;;17.80;43.50;;;;;;462968;257;1191;-45
2021/04/03 00:15:01;;;;;;;;;;;17.80;43.50;;;;;;463033;257;1089;-45
2021/04/03 00:17:02;;;;;;;;;;;17.80;43.50;;;;;;462860;257;2183;-45
2021/04/03 00:19:03;;;;;;;;;;;18.00;43.10;;;;;;462929;257;1059;-45
2021/04/03 00:21:05;;;;;;;;;;;18.40;42.20;;;;;;462879;257;1195;-45
2021/04/03 00:23:06;;;;;;;;;;;18.70;41.40;;;;;;462998;257;1262;-45
2021/04/03 00:25:07;;;;;;;;;;;18.90;40.90;;;;;;463222;257;1081;-45
2021/04/03 00:27:09;;;;;;;;;;;19.10;40.60;;;;;;462913;257;1114;-45
2021/04/03 00:29:10;;;;;;;;;;;19.20;40.30;;;;;;462920;257;1155;-45
2021/04/03 00:31:11;;;;;;;;;;;19.30;40.10;;;;;;463193;254;1242;-45
2021/04/03 00:33:12;;;;;;;;;;;19.40;39.90;;;;;;462918;257;1066;-45
2021/04/03 00:35:14;;;;;;;;;;;19.50;39.80;;;;;;462953;257;2202;-45
2021/04/03 00:37:15;;;;;;;;;;;19.50;39.70;;;;;;462930;257;1343;-45
2021/04/03 00:39:16;;;;;;;;;;;19.60;39.60;;;;;;462959;257;1198;-45
2021/04/03 00:41:17;;;;;;;;;;;19.60;39.40;;;;;;462968;257;1433;-45
2021/04/03 00:43:19;;;;;;;;;;;19.70;39.40;;;;;;463002;257;1085;-45
2021/04/03 00:45:20;;;;;;;;;;;19.80;39.30;;;;;;462965;257;1272;-45
2021/04/03 00:47:21;;;;;;;;;;;19.80;39.20;;;;;;463004;257;1141;-45
2021/04/03 00:49:23;;;;;;;;;;;19.80;39.10;;;;;;462930;257;1072;-45
2021/04/03 00:51:24;;;;;;;;;;;19.90;39.00;;;;;;463132;257;1229;-45
2021/04/03 00:53:25;;;;;;;;;;;19.90;39.00;;;;;;462966;257;1359;-45
2021/04/03 00:55:27;;;;;;;;;;;19.90;38.90;;;;;;462936;257;2203;-45
2021/04/03 00:57:28;;;;;;;;;;;20.00;38.90;;;;;;462918;257;1334;-45
2021/04/03 00:59:29;;;;;;;;;;;20.00;38.80;;;;;;462962;257;1091;-45
2021/04/03 01:01:31;;;;;;;;;;;20.00;38.70;;;;;;463084;257;1105;-45
2021/04/03 01:03:32;;;;;;;;;;;20.00;38.70;;;;;;462912;257;1094;-45
2021/04/03 01:05:33;;;;;;;;;;;20.10;38.70;;;;;;462974;257;1059;-45
2021/04/03 01:07:34;;;;;;;;;;;20.10;38.60;;;;;;462959;257;1053;-45
2021/04/03 01:09:36;;;;;;;;;;;20.10;38.60;;;;;;462963;257;1137;-45
2021/04/03 01:11:37;;;;;;;;;;;20.10;38.50;;;;;;463066;257;1108;-45
2021/04/03 01:13:38;;;;;;;;;;;20.20;38.50;;;;;;463038;257;1053;-45
2021/04/03 01:15:40;;;;;;;;;;;20.20;38.50;;;;;;462899;257;2202;-45
2021/04/03 01:17:41;;;;;;;;;;;20.20;38.50;;;;;;462926;257;1107;-45
2021/04/03 01:19:42;;;;;;;;;;;20.20;38.40;;;;;;463018;257;1060;-45
2021/04/03 01:21:43;;;;;;;;;;;20.20;38.50;;;;;;462959;257;1088;-45
2021/04/03 01:23:45;;;;;;;;;;;20.30;38.40;;;;;;462932;257;1321;-45
2021/04/03 01:25:46;;;;;;;;;;;20.30;38.40;;;;;;462922;257;1088;-45
2021/04/03 01:27:47;;;;;;;;;;;20.30;38.30;;;;;;462903;257;1138;-45
2021/04/03 01:29:49;;;;;;;;;;;20.30;38.40;;;;;;463063;257;1061;-45
2021/04/03 01:31:50;;;;;;;;;;;20.30;38.30;;;;;;463038;257;1130;-45
2021/04/03 01:33:51;;;;;;;;;;;20.40;38.40;;;;;;462929;257;1060;-45
2021/04/03 01:35:52;;;;;;;;;;;20.30;38.30;;;;;;463012;257;2218;-45
2021/04/03 01:37:54;;;;;;;;;;;20.40;38.30;;;;;;462957;257;1106;-45
2021/04/03 01:39:55;;;;;;;;;;;20.40;38.30;;;;;;463006;257;1222;-45
2021/04/03 01:41:56;;;;;;;;;;;20.40;38.30;;;;;;462848;257;1138;-45
2021/04/03 01:43:58;;;;;;;;;;;20.40;38.20;;;;;;462924;257;1105;-45
2021/04/03 01:45:59;;;;;;;;;;;20.40;38.30;;;;;;462911;257;1093;-45
2021/04/03 01:48:00;;;;;;;;;;;20.40;38.30;;;;;;463006;257;1115;-45
2021/04/03 01:50:01;;;;;;;;;;;20.40;38.20;;;;;;462908;257;1093;-45
2021/04/03 01:52:03;;;;;;;;;;;20.40;38.20;;;;;;462874;257;1055;-45
2021/04/03 01:54:04;;;;;;;;;;;20.40;38.20;;;;;;463253;257;1185;-45
2021/04/03 01:56:05;;;;;;;;;;;20.40;38.10;;;;;;462980;257;2155;-45
2021/04/03 01:58:07;;;;;;;;;;;20.50;38.10;;;;;;462870;257;1061;-45
2021/04/03 02:00:08;;;;;;;;;;;20.50;38.10;;;;;;462955;257;1103;-45
2021/04/03 02:02:09;;;;;;;;;;;20.50;38.20;;;;;;463050;257;1185;-45
2021/04/03 02:04:10;;;;;;;;;;;20.50;38.10;;;;;;462888;257;1062;-45
2021/04/03 02:06:12;;;;;;;;;;;20.50;38.20;;;;;;462958;257;1073;-45
2021/04/03 02:08:13;;;;;;;;;;;20.50;38.20;;;;;;462977;257;1230;-45
2021/04/03 02:10:14;;;;;;;;;;;20.50;38.10;;;;;;463009;257;1315;-45
2021/04/03 02:12:15;;;;;;;;;;;20.50;38.10;;;;;;462896;257;1035;-45
2021/04/03 02:14:17;;;;;;;;;;;20.60;38.20;;;;;;462930;257;1259;-45
2021/04/03 02:16:18;;;;;;;;;;;20.60;38.10;;;;;;462853;257;2216;-45
2021/04/03 02:18:19;;;;;;;;;;;20.60;38.10;;;;;;463183;257;1101;-45
2021/04/03 02:20:21;;;;;;;;;;;20.60;38.10;;;;;;462936;257;1058;-45
2021/04/03 02:22:22;;;;;;;;;;;20.60;38.10;;;;;;462897;257;1141;-45
2021/04/03 02:24:23;;;;;;;;;;;20.60;38.00;;;;;;463156;257;1275;-45
2021/04/03 02:26:25;;;;;;;;;;;20.60;38.00;;;;;;463009;257;1053;-45
2021/04/03 02:28:26;;;;;;;;;;;20.70;38.00;;;;;;462971;257;1076;-45
2021/04/03 02:30:27;;;;;;;;;;;20.70;38.00;;;;;;462896;257;1314;-45
2021/04/03 02:32:29;;;;;;;;;;;20.60;37.90;;;;;;462816;257;1066;-45
2021/04/03 02:34:30;;;;;;;;;;;20.70;38.00;;;;;;463101;257;1101;-45
2021/04/03 02:36:31;;;;;;;;;;;20.70;37.90;;;;;;462945;257;2148;-45
2021/04/03 02:38:32;;;;;;;;;;;20.70;38.00;;;;;;462962;257;1093;-45
2021/04/03 02:40:34;;;;;;;;;;;20.70;37.90;;;;;;463094;257;1204;-45
2021/04/03 02:42:35;;;;;;;;;;;20.70;37.90;;;;;;463117;257;1054;-45
2021/04/03 02:44:36;;;;;;;;;;;20.70;37.90;;;;;;462874;257;1079;-45
2021/04/03 02:46:37;;;;;;;;;;;20.70;37.90;;;;;;463113;257;1041;-45
2021/04/03 02:48:39;;;;;;;;;;;20.80;37.80;;;;;;462938;257;1109;-45
2021/04/03 02:50:40;;;;;;;;;;;20.80;37.80;;;;;;463095;257;1077;-45
2021/04/03 02:52:41;;;;;;;;;;;20.80;37.90;;;;;;462912;257;1346;-45
2021/04/03 02:54:43;;;;;;;;;;;20.80;37.90;;;;;;463040;257;1189;-45
2021/04/03 02:56:44;;;;;;;;;;;20.80;37.90;;;;;;462960;257;2203;-45
2021/04/03 02:58:45;;;;;;;;;;;20.80;37.90;;;;;;462925;257;1245;-45
2021/04/03 03:00:47;;;;;;;;;;;20.80;37.80;;;;;;462930;257;1123;-45
2021/04/03 03:02:48;;;;;;;;;;;20.80;37.90;;;;;;462970;257;1552;-45
2021/04/03 03:04:49;;;;;;;;;;;20.80;37.80;;;;;;462899;257;1059;-45
2021/04/03 03:06:50;;;;;;;;;;;20.80;37.80;;;;;;462921;257;1105;-45
2021/04/03 03:08:52;;;;;;;;;;;20.90;37.80;;;;;;462971;257;1080;-45
2021/04/03 03:10:53;;;;;;;;;;;20.90;37.80;;;;;;462918;257;1214;-45
2021/04/03 03:12:54;;;;;;;;;;;20.90;37.70;;;;;;463051;257;1066;-45
2021/04/03 03:14:56;;;;;;;;;;;20.90;37.70;;;;;;462989;257;1082;-45
2021/04/03 03:16:57;;;;;;;;;;;20.90;37.70;;;;;;462951;257;2143;-45
2021/04/03 03:18:58;;;;;;;;;;;20.90;37.70;;;;;;462900;257;2317;-45
2021/04/03 03:20:59;;;;;;;;;;;20.90;37.70;;;;;;463063;257;1059;-45
2021/04/03 03:23:01;;;;;;;;;;;20.90;37.70;;;;;;462918;257;1089;-45
2021/04/03 03:25:02;;;;;;;;;;;20.90;37.70;;;;;;462993;257;1315;-45
2021/04/03 03:27:03;;;;;;;;;;;20.90;37.60;;;;;;462790;257;1084;-45
2021/04/03 03:29:04;;;;;;;;;;;20.90;37.60;;;;;;463199;257;1370;-45
2021/04/03 03:31:06;;;;;;;;;;;20.90;37.60;;;;;;462977;257;1095;-45
2021/04/03 03:33:07;;;;;;;;;;;20.90;37.60;;;;;;462920;257;1130;-45
2021/04/03 03:35:08;;;;;;;;;;;21.00;37.50;;;;;;462903;257;1040;-45
2021/04/03 03:37:10;;;;;;;;;;;21.00;37.50;;;;;;463242;257;2164;-45
2021/04/03 03:39:11;;;;;;;;;;;21.00;37.50;;;;;;463141;257;1134;-45
2021/04/03 03:41:12;;;;;;;;;;;21.00;37.50;;;;;;462980;257;1214;-45
2021/04/03 03:43:17;;;;;;;;;;;21.00;37.50;;;;;;463021;257;1080;-45
2021/04/03 03:45:17;;;;;;;;;;;21.00;37.60;;;;;;462862;257;2104;-45
2021/04/03 03:47:18;;;;;;;;;;;21.00;37.50;;;;;;462922;257;1105;-45
2021/04/03 03:49:20;;;;;;;;;;;21.10;37.50;;;;;;463182;257;1249;-45
2021/04/03 03:51:21;;;;;;;;;;;21.10;37.50;;;;;;462812;257;1341;-45
2021/04/03 03:53:22;;;;;;;;;;;21.10;37.50;;;;;;463087;257;1074;-45
2021/04/03 03:55:23;;;;;;;;;;;21.10;37.50;;;;;;462966;257;1217;-45
2021/04/03 03:57:25;;;;;;;;;;;21.10;37.50;;;;;;462786;257;2235;-45
2021/04/03 03:59:26;;;;;;;;;;;21.10;37.50;;;;;;463012;257;1123;-45
2021/04/03 04:01:27;;;;;;;;;;;21.10;37.50;;;;;;462833;257;1301;-45
2021/04/03 04:03:29;;;;;;;;;;;21.10;37.50;;;;;;462977;257;1068;-45
2021/04/03 04:05:30;;;;;;;;;;;21.10;37.50;;;;;;462905;257;1086;-45
2021/04/03 04:07:35;;;;;;;;;;;21.10;37.50;;;;;;462903;257;1164;-45
2021/04/03 04:09:32;;;;;;;;;;;21.10;37.40;;;;;;462660;257;1629;-45
2021/04/03 04:11:34;;;;;;;;;;;21.10;37.30;;;;;;463062;257;1604;-45
2021/04/03 04:13:37;;;;;;;;;;;20.70;38.00;;;;;;463278;257;1131;-45
2021/04/03 04:15:37;;;;;;;;;;;20.20;39.10;;;;;;462868;258;2245;-45
2021/04/03 04:17:38;;;;;;;;;;;19.80;40.00;;;;;;462948;257;2155;-45
2021/04/03 04:19:40;;;;;;;;;;;19.50;40.60;;;;;;462934;257;1065;-45
2021/04/03 04:21:41;;;;;;;;;;;19.20;41.10;;;;;;462990;257;1139;-45
2021/04/03 04:23:42;;;;;;;;;;;19.10;41.40;;;;;;462940;257;1119;-45
2021/04/03 04:25:44;;;;;;;;;;;19.10;41.60;;;;;;463267;257;1207;-45
2021/04/03 04:27:45;;;;;;;;;;;19.00;41.80;;;;;;462975;257;1097;-45
2021/04/03 04:29:46;;;;;;;;;;;18.80;41.90;;;;;;462934;257;1030;-45
2021/04/03 04:31:47;;;;;;;;;;;18.80;42.10;;;;;;463117;257;1490;-45
2021/04/03 04:33:49;;;;;;;;;;;18.70;42.20;;;;;;462918;257;992;-45
2021/04/03 04:35:50;;;;;;;;;;;18.60;42.40;;;;;;462944;257;1016;-45
2021/04/03 04:37:51;;;;;;;;;;;18.60;42.50;;;;;;462935;257;2199;-45
2021/04/03 04:39:53;;;;;;;;;;;18.60;42.50;;;;;;463031;257;1083;-45
2021/04/03 04:41:54;;;;;;;;;;;18.50;42.60;;;;;;462942;257;1316;-45
2021/04/03 04:43:55;;;;;;;;;;;18.50;42.80;;;;;;463036;257;1079;-45
2021/04/03 04:45:56;;;;;;;;;;;18.40;42.80;;;;;;463243;257;1105;-45
2021/04/03 04:47:58;;;;;;;;;;;18.40;42.90;;;;;;463123;257;1057;-45
2021/04/03 04:49:59;;;;;;;;;;;18.40;43.00;;;;;;463034;257;1090;-45
2021/04/03 04:52:00;;;;;;;;;;;18.40;43.00;;;;;;463060;257;1031;-45
2021/04/03 04:54:02;;;;;;;;;;;18.40;43.00;;;;;;463099;257;1256;-45
2021/04/03 04:56:03;;;;;;;;;;;18.30;43.10;;;;;;463093;257;1171;-45
2021/04/03 04:58:04;;;;;;;;;;;18.30;43.10;;;;;;462993;257;2195;-45
2021/04/03 05:00:06;;;;;;;;;;;18.30;43.00;;;;;;462941;257;1115;-45
2021/04/03 05:02:07;;;;;;;;;;;18.30;43.10;;;;;;462973;257;1183;-45
2021/04/03 05:04:08;;;;;;;;;;;18.20;43.20;;;;;;462911;257;1131;-45
2021/04/03 05:06:09;;;;;;;;;;;18.20;43.20;;;;;;463002;257;1340;-45
2021/04/03 05:08:10;;;;;;;;;;;18.20;43.30;;;;;;462945;257;1071;-45
2021/04/03 05:10:12;;;;;;;;;;;18.20;43.30;;;;;;462936;257;1225;-45
2021/04/03 05:12:13;;;;;;;;;;;18.10;43.30;;;;;;463049;257;1223;-45
2021/04/03 05:14:14;;;;;;;;;;;18.10;43.30;;;;;;462968;257;1101;-45
2021/04/03 05:16:16;;;;;;;;;;;18.10;43.30;;;;;;463245;257;1096;-45
2021/04/03 05:18:17;;;;;;;;;;;18.10;43.30;;;;;;462925;257;2202;-45
2021/04/03 05:20:18;;;;;;;;;;;18.10;43.30;;;;;;462994;257;1067;-45
2021/04/03 05:22:19;;;;;;;;;;;18.10;43.30;;;;;;462885;257;1131;-45
2021/04/03 05:24:21;;;;;;;;;;;18.10;43.30;;;;;;462944;257;1115;-45
2021/04/03 05:26:22;;;;;;;;;;;18.00;43.40;;;;;;462904;257;1276;-45
2021/04/03 05:28:25;;;;;;;;;;;18.00;43.50;;;;;;462928;257;1099;-45
2021/04/03 05:30:25;;;;;;;;;;;18.00;43.50;;;;;;462958;257;1857;-45
2021/04/03 05:32:26;;;;;;;;;;;17.90;43.50;;;;;;462904;257;1113;-45
2021/04/03 05:34:27;;;;;;;;;;;17.90;43.50;;;;;;462911;257;1115;-45
2021/04/03 05:36:29;;;;;;;;;;;17.90;43.50;;;;;;462889;257;1057;-45
2021/04/03 05:38:30;;;;;;;;;;;17.90;43.60;;;;;;463304;257;2195;-45
2021/04/03 05:40:31;;;;;;;;;;;17.90;43.60;;;;;;462952;257;1050;-45
2021/04/03 05:42:33;;;;;;;;;;;17.90;43.50;;;;;;462913;257;1253;-45
2021/04/03 05:44:34;;;;;;;;;;;17.90;43.50;;;;;;463110;257;1090;-44
2021/04/03 05:46:35;;;;;;;;;;;17.90;43.60;;;;;;462845;257;1055;-45
2021/04/03 05:48:36;;;;;;;;;;;17.90;43.60;;;;;;462946;257;1126;-44
2021/04/03 05:50:38;;;;;;;;;;;17.80;43.60;;;;;;463206;257;1053;-45
2021/04/03 05:52:40;;;;;;;;;;;17.90;43.50;;;;;;462849;257;1079;-45
2021/04/03 05:54:40;;;;;;;;;;;17.80;43.50;;;;;;462848;257;1293;-45
2021/04/03 05:56:42;;;;;;;;;;;17.80;43.60;;;;;;462817;257;1183;-45
2021/04/03 05:58:43;;;;;;;;;;;17.80;43.60;;;;;;463055;257;2164;-44
2021/04/03 06:00:44;;;;;;;;;;;17.80;43.60;;;;;;462870;257;1219;-45
2021/04/03 06:02:45;;;;;;;;;;;17.80;43.60;;;;;;462822;257;1134;-45
2021/04/03 06:04:47;;;;;;;;;;;17.80;43.60;;;;;;462910;257;1273;-45
2021/04/03 06:06:48;;;;;;;;;;;17.70;43.60;;;;;;462717;257;1335;-45
2021/04/03 06:08:49;;;;;;;;;;;17.90;43.40;;;;;;462752;257;1072;-45
2021/04/03 06:10:51;;;;;;;;;;;18.30;42.60;;;;;;462981;257;1085;-45
2021/04/03 06:12:52;;;;;;;;;;;18.60;41.70;;;;;;462824;257;1229;-45
2021/04/03 06:14:53;;;;;;;;;;;18.90;41.10;;;;;;462794;257;1116;-45
2021/04/03 06:16:54;;;;;;;;;;;19.10;40.60;;;;;;462690;257;1208;-44
2021/04/03 06:18:56;;;;;;;;;;;19.30;40.30;;;;;;462823;257;2191;-45
2021/04/03 06:20:57;;;;;;;;;;;19.30;40.00;;;;;;462769;257;1121;-45
2021/04/03 06:22:58;;;;;;;;;;;19.50;39.80;;;;;;462689;257;1363;-45
2021/04/03 06:25:00;;;;;;;;;;;19.60;39.60;;;;;;462817;257;1116;-45
2021/04/03 06:27:01;;;;;;;;;;;19.60;39.50;;;;;;462818;257;1352;-45
2021/04/03 06:29:02;;;;;;;;;;;19.70;39.50;;;;;;462891;257;1041;-45
2021/04/03 06:31:03;;;;;;;;;;;19.70;39.30;;;;;;462867;257;1058;-45
2021/04/03 06:33:05;;;;;;;;;;;19.80;39.20;;;;;;462851;257;967;-45
2021/04/03 06:35:06;;;;;;;;;;;19.80;39.10;;;;;;462943;257;1050;-45
2021/04/03 06:37:07;;;;;;;;;;;19.80;39.00;;;;;;462848;257;1069;-45
2021/04/03 06:39:08;;;;;;;;;;;19.90;39.00;;;;;;462949;257;2183;-45
2021/04/03 06:41:10;;;;;;;;;;;19.90;38.80;;;;;;462870;257;1127;-45
2021/04/03 06:43:11;;;;;;;;;;;20.00;38.80;;;;;;462919;257;1258;-45
2021/04/03 06:45:12;;;;;;;;;;;20.00;38.80;;;;;;462930;257;1085;-45
2021/04/03 06:47:14;;;;;;;;;;;20.10;38.70;;;;;;462907;257;1085;-45
2021/04/03 06:49:15;;;;;;;;;;;20.00;38.60;;;;;;462848;258;1067;-45
2021/04/03 06:51:16;;;;;;;;;;;20.10;38.60;;;;;;462831;257;1087;-45
2021/04/03 06:53:17;;;;;;;;;;;20.10;38.50;;;;;;462769;257;1118;-45
2021/04/03 06:55:19;;;;;;;;;;;20.10;38.40;;;;;;462818;257;1049;-45
2021/04/03 06:57:20;;;;;;;;;;;20.20;38.40;;;;;;462736;257;2195;-45
2021/04/03 06:59:21;;;;;;;;;;;20.20;38.40;;;;;;462821;257;1240;-45
2021/04/03 07:01:23;;;;;;;;;;;20.20;38.30;;;;;;462864;257;1089;-45
2021/04/03 07:03:24;;;;;;;;;;;20.30;38.30;;;;;;463018;257;1135;-45
2021/04/03 07:05:25;;;;;;;;;;;20.30;38.20;;;;;;462895;257;1055;-45
2021/04/03 07:07:28;;;;;;;;;;;20.30;38.20;;;;;;462835;257;1095;-45
2021/04/03 07:09:28;;;;;;;;;;;20.30;38.10;;;;;;462681;258;1967;-45
2021/04/03 07:11:29;;;;;;;;;;;20.30;38.00;;;;;;462793;257;1065;-45
2021/04/03 07:13:30;;;;;;;;;;;20.40;38.10;;;;;;462944;257;1432;-45
2021/04/03 07:15:32;;;;;;;;;;;20.30;38.10;;;;;;462856;257;1087;-45
2021/04/03 07:17:33;;;;;;;;;;;20.40;38.10;;;;;;462778;257;2183;-45
2021/04/03 07:19:34;;;;;;;;;;;20.40;38.10;;;;;;462744;257;1053;-45
2021/04/03 07:21:35;;;;;;;;;;;20.40;38.10;;;;;;462922;254;1389;-45
2021/04/03 07:23:38;;;;;;;;;;;20.40;38.10;;;;;;462864;257;1070;-45
2021/04/03 07:25:38;;;;;;;;;;;20.40;38.00;;;;;;462710;258;2402;-45
2021/04/03 07:27:39;;;;;;;;;;;20.40;38.00;;;;;;462707;257;1555;-45
2021/04/03 07:29:40;;;;;;;;;;;20.40;37.90;;;;;;462981;257;1048;-45
2021/04/03 07:31:44;;;;;;;;;;;20.50;37.90;;;;;;462790;257;1238;-45
2021/04/03 07:33:43;;;;;;;;;;;20.50;37.90;;;;;;462753;257;1221;-45
2021/04/03 07:35:44;;;;;;;;;;;20.50;37.90;;;;;;462701;257;1114;-45
2021/04/03 07:37:46;;;;;;;;;;;20.50;37.80;;;;;;462832;257;2191;-45
2021/04/03 07:39:47;;;;;;;;;;;20.50;37.80;;;;;;462875;257;1143;-45
2021/04/03 07:41:48;;;;;;;;;;;20.50;37.80;;;;;;462721;257;1561;-45
2021/04/03 07:43:50;;;;;;;;;;;20.50;37.80;;;;;;462714;257;1218;-45
2021/04/03 07:45:51;;;;;;;;;;;20.50;37.80;;;;;;462828;257;1140;-45
2021/04/03 07:47:52;;;;;;;;;;;20.60;37.80;;;;;;462778;257;1203;-45
2021/04/03 07:49:54;;;;;;;;;;;20.60;37.80;;;;;;463255;257;1102;-45
2021/04/03 07:51:55;;;;;;;;;;;20.60;37.80;;;;;;462869;257;1086;-45
2021/04/03 07:53:57;;;;;;;;;;;20.60;37.70;;;;;;462784;257;1076;-45
2021/04/03 07:55:58;;;;;;;;;;;20.60;37.70;;;;;;462871;257;1088;-45
2021/04/03 07:57:59;;;;;;;;;;;20.60;37.70;;;;;;462848;257;2155;-45
2021/04/03 08:00:02;;;;;;;;;;;20.60;37.70;;;;;;462789;257;1111;-45
2021/04/03 08:02:02;;;;;;;;;;;20.60;37.70;;;;;;462653;257;1984;-45
2021/04/03 08:04:03;;;;;;;;;;;20.60;37.60;;;;;;462776;257;1163;-45
2021/04/03 08:06:04;;;;;;;;;;;20.70;37.60;;;;;;462991;257;1062;-45
2021/04/03 08:08:06;;;;;;;;;;;20.70;37.60;;;;;;462868;257;1075;-45
2021/04/03 08:10:07;;;;;;;;;;;20.70;37.60;;;;;;462887;257;1052;-45
2021/04/03 08:12:08;;;;;;;;;;;20.70;37.60;;;;;;462819;257;1061;-45
2021/04/03 08:14:10;;;;;;;;;;;20.70;37.60;;;;;;462829;257;1212;-45
2021/04/03 08:16:11;;;;;;;;;;;20.70;37.60;;;;;;462694;257;1152;-45
2021/04/03 08:18:12;;;;;;;;;;;20.70;37.60;;;;;;462854;257;2152;-45
2021/04/03 08:20:13;;;;;;;;;;;20.70;37.50;;;;;;462852;257;1096;-45
2021/04/03 08:22:15;;;;;;;;;;;20.80;37.60;;;;;;462847;257;1095;-45
2021/04/03 08:24:16;;;;;;;;;;;20.80;37.60;;;;;;462706;257;1147;-45
2021/04/03 08:26:17;;;;;;;;;;;20.80;37.60;;;;;;462940;257;1117;-45
2021/04/03 08:28:18;;;;;;;;;;;20.80;37.50;;;;;;462745;257;1338;-45
2021/04/03 08:30:23;;;;;;;;;;;20.80;37.50;;;;;;462809;257;1114;-45
2021/04/03 08:32:24;;;;;;;;;;;20.80;37.40;;;;;;462879;257;1278;-45
2021/04/03 08:34:25;;;;;;;;;;;20.90;37.50;;;;;;462835;257;1043;-45
2021/04/03 08:36:27;;;;;;;;;;;20.80;37.40;;;;;;462736;257;1092;-45
2021/04/03 08:38:28;;;;;;;;;;;20.90;37.50;;;;;;462849;257;2202;-45
2021/04/03 08:40:29;;;;;;;;;;;20.80;37.40;;;;;;462849;257;1147;-45
2021/04/03 08:42:31;;;;;;;;;;;20.80;37.40;;;;;;462824;257;1092;-45
2021/04/03 08:44:32;;;;;;;;;;;20.80;37.40;;;;;;462902;257;1196;-45
2021/04/03 08:46:33;;;;;;;;;;;20.90;37.40;;;;;;462839;257;1054;-45
2021/04/03 08:48:35;;;;;;;;;;;20.90;37.40;;;;;;462819;257;1091;-45
2021/04/03 08:50:36;;;;;;;;;;;20.90;37.40;;;;;;462755;257;1117;-45
2021/04/03 08:52:37;;;;;;;;;;;20.90;37.40;;;;;;462883;257;1047;-45
2021/04/03 08:54:38;;;;;;;;;;;20.90;37.40;;;;;;462873;257;1072;-45
2021/04/03 08:56:40;;;;;;;;;;;20.90;37.40;;;;;;462802;257;1037;-45
2021/04/03 08:58:41;;;;;;;;;;;20.90;37.30;;;;;;462835;257;2160;-45
2021/04/03 09:00:42;;;;;;;;;;;20.90;37.40;;;;;;462847;257;1093;-45
2021/04/03 09:02:44;;;;;;;;;;;21.00;37.40;;;;;;462889;257;1050;-45
2021/04/03 09:04:45;;;;;;;;;;;20.90;37.30;;;;;;462857;257;1073;-45
2021/04/03 09:06:46;;;;;;;;;;;21.00;37.30;;;;;;462832;257;1063;-45
2021/04/03 09:08:47;;;;;;;;;;;21.00;37.20;;;;;;462883;257;1095;-45
2021/04/03 09:10:49;;;;;;;;;;;20.90;37.20;;;;;;462820;257;1004;-45
2021/04/03 09:12:50;;;;;;;;;;;21.00;37.30;;;;;;462851;257;1039;-45
2021/04/03 09:14:54;;;;;;;;;;;21.00;37.20;;;;;;462796;257;1215;-45
2021/04/03 09:16:53;;;;;;;;;;;21.00;37.20;;;;;;462658;258;1673;-45
2021/04/03 09:18:55;;;;;;;;;;;21.00;37.20;;;;;;462879;257;2141;-45
2021/04/03 09:20:56;;;;;;;;;;;21.00;37.20;;;;;;462757;257;1143;-45
2021/04/03 09:22:57;;;;;;;;;;;21.00;37.20;;;;;;462796;257;1029;-45
2021/04/03 09:24:58;;;;;;;;;;;21.10;37.20;;;;;;462863;257;1094;-45
2021/04/03 09:27:00;;;;;;;;;;;21.10;37.20;;;;;;462753;257;1109;-45
2021/04/03 09:29:01;;;;;;;;;;;21.10;37.10;;;;;;462819;257;1316;-45
2021/04/03 09:31:02;;;;;;;;;;;21.10;37.10;;;;;;462875;257;1068;-45
2021/04/03 09:33:03;;;;;;;;;;;21.00;37.10;;;;;;463000;257;1057;-45
2021/04/03 09:35:05;;;;;;;;;;;21.00;37.10;;;;;;462790;257;1045;-45
2021/04/03 09:37:06;;;;;;;;;;;21.00;37.10;;;;;;463013;257;1082;-45
2021/04/03 09:39:07;;;;;;;;;;;21.10;37.20;;;;;;462781;257;2168;-45
2021/04/03 09:41:09;;;;;;;;;;;21.10;37.10;;;;;;462873;257;1229;-45
2021/04/03 09:43:10;;;;;;;;;;;21.10;37.20;;;;;;462867;257;1070;-45
2021/04/03 09:45:11;;;;;;;;;;;21.10;37.10;;;;;;462833;257;1300;-45
2021/04/03 09:47:12;;;;;;;;;;;21.10;37.10;;;;;;462727;257;1217;-45
2021/04/03 09:49:14;;;;;;;;;;;21.10;37.10;;;;;;462859;257;1065;-45
2021/04/03 09:51:15;;;;;;;;;;;21.10;37.00;;;;;;462820;257;1217;-45
2021/04/03 09:53:16;;;;;;;;;;;21.10;37.00;;;;;;462730;257;1071;-45
2021/04/03 09:55:18;;;;;;;;;;;21.10;37.00;;;;;;462911;257;1051;-45
2021/04/03 09:57:20;;;;;;;;;;;21.10;37.10;;;;;;462938;257;1047;-45
2021/04/03 09:59:20;;;;;;;;;;;21.10;37.00;;;;;;462841;257;2191;-45
2021/04/03 10:01:21;;;;;;;;;;;21.10;37.10;;;;;;462820;257;1065;-45
2021/04/03 10:03:23;;;;;;;;;;;21.10;37.10;;;;;;462945;257;1102;-45
2021/04/03 10:05:24;;;;;;;;;;;21.20;37.10;;;;;;462855;258;1091;-45
2021/04/03 10:07:25;;;;;;;;;;;21.10;37.10;;;;;;462859;257;1059;-45
2021/04/03 10:09:26;;;;;;;;;;;21.10;37.10;;;;;;462981;257;1098;-45
2021/04/03 10:11:28;;;;;;;;;;;21.20;37.00;;;;;;462851;257;1078;-45
2021/04/03 10:13:29;;;;;;;;;;;21.20;37.00;;;;;;462869;257;1111;-45
2021/04/03 10:15:30;;;;;;;;;;;21.20;36.80;;;;;;462778;257;1228;-45
2021/04/03 10:17:32;;;;;;;;;;;21.00;37.20;;;;;;462843;257;1121;-45
2021/04/03 10:19:33;;;;;;;;;;;20.60;37.80;;;;;;463054;257;2203;-45
2021/04/03 10:21:34;;;;;;;;;;;20.40;38.50;;;;;;462806;257;1119;-45
2021/04/03 10:23:35;;;;;;;;;;;20.10;39.00;;;;;;462970;257;1125;-45
2021/04/03 10:25:37;;;;;;;;;;;20.00;39.30;;;;;;462782;257;1057;-45
2021/04/03 10:27:38;;;;;;;;;;;19.90;39.40;;;;;;462752;257;1215;-45
2021/04/03 10:29:40;;;;;;;;;;;19.80;39.60;;;;;;462857;257;1214;-45
2021/04/03 10:31:41;;;;;;;;;;;19.70;39.70;;;;;;462765;254;1120;-45
2021/04/03 10:33:42;;;;;;;;;;;19.70;39.90;;;;;;462842;257;1099;-45
2021/04/03 10:35:43;;;;;;;;;;;19.60;40.10;;;;;;462851;257;1051;-45
2021/04/03 10:37:45;;;;;;;;;;;19.50;40.30;;;;;;462861;257;1120;-45
2021/04/03 10:39:46;;;;;;;;;;;19.30;40.50;;;;;;462805;257;2155;-44
2021/04/03 10:41:47;;;;;;;;;;;19.20;40.80;;;;;;462881;257;1113;-45
2021/04/03 10:43:49;;;;;;;;;;;19.10;40.90;;;;;;462918;257;1050;-45
2021/04/03 10:45:50;;;;;;;;;;;19.00;41.20;;;;;;462691;257;1578;-45
2021/04/03 10:47:51;;;;;;;;;;;18.90;41.40;;;;;;462955;257;1072;-44
2021/04/03 10:49:52;;;;;;;;;;;18.80;41.60;;;;;;462880;257;1089;-45
2021/04/03 10:51:54;;;;;;;;;;;18.70;41.70;;;;;;462813;257;1064;-45
2021/04/03 10:53:55;;;;;;;;;;;18.70;42.00;;;;;;462927;257;1027;-45
2021/04/03 10:55:56;;;;;;;;;;;18.60;42.00;;;;;;462816;257;1156;-45
2021/04/03 10:57:58;;;;;;;;;;;18.60;42.10;;;;;;462963;257;1089;-45
2021/04/03 10:59:59;;;;;;;;;;;18.50;42.30;;;;;;462862;257;2148;-45
2021/04/03 11:02:00;;;;;;;;;;;18.50;42.30;;;;;;462816;257;1122;-45
2021/04/03 11:04:01;;;;;;;;;;;18.50;42.30;;;;;;462908;257;1081;-45
2021/04/03 11:06:03;;;;;;;;;;;18.40;42.30;;;;;;462895;257;1139;-45
2021/04/03 11:08:04;;;;;;;;;;;18.40;42.40;;;;;;462848;257;1069;-45
2021/04/03 11:10:06;;;;;;;;;;;18.40;42.40;;;;;;463059;257;1088;-45
2021/04/03 11:12:07;;;;;;;;;;;18.30;42.50;;;;;;462899;257;1148;-45
2021/04/03 11:14:08;;;;;;;;;;;18.30;42.60;;;;;;462919;257;1199;-45
2021/04/03 11:16:09;;;;;;;;;;;18.30;42.70;;;;;;462818;257;1175;-45
2021/04/03 11:18:11;;;;;;;;;;;18.20;42.60;;;;;;462903;257;1413;-45
2021/04/03 11:20:12;;;;;;;;;;;18.20;42.70;;;;;;463008;257;2207;-45
2021/04/03 11:22:13;;;;;;;;;;;18.20;42.80;;;;;;462802;257;1133;-45
2021/04/03 11:24:14;;;;;;;;;;;18.10;42.80;;;;;;462888;257;1093;-45
2021/04/03 11:26:16;;;;;;;;;;;18.10;42.90;;;;;;462796;257;1347;-45
2021/04/03 11:28:17;;;;;;;;;;;18.10;42.90;;;;;;462659;257;1092;-45
2021/04/03 11:30:18;;;;;;;;;;;18.00;42.90;;;;;;463002;257;1169;-45
2021/04/03 11:32:20;;;;;;;;;;;18.00;42.90;;;;;;462758;257;1116;-45
2021/04/03 11:34:21;;;;;;;;;;;18.00;42.90;;;;;;462762;257;1053;-45
2021/04/03 11:36:22;;;;;;;;;;;18.00;42.90;;;;;;462663;257;1096;-45
2021/04/03 11:38:23;;;;;;;;;;;18.00;43.10;;;;;;462749;257;1150;-45
2021/04/03 11:40:25;;;;;;;;;;;17.90;43.10;;;;;;462717;257;2195;-45
2021/04/03 11:42:26;;;;;;;;;;;18.00;43.10;;;;;;462826;257;1243;-45
2021/04/03 11:44:27;;;;;;;;;;;18.00;43.00;;;;;;462957;257;1078;-44
2021/04/03 11:46:29;;;;;;;;;;;17.90;43.10;;;;;;462918;257;1330;-45
2021/04/03 11:48:30;;;;;;;;;;;17.90;43.20;;;;;;462875;257;1086;-45
2021/04/03 11:50:31;;;;;;;;;;;17.90;43.10;;;;;;462945;257;1068;-44
2021/04/03 11:52:32;;;;;;;;;;;17.90;43.20;;;;;;462873;257;1074;-45
2021/04/03 11:54:34;;;;;;;;;;;17.80;43.10;;;;;;462860;257;1101;-44
2021/04/03 11:56:35;;;;;;;;;;;17.80;43.20;;;;;;462771;257;1129;-44